createdAt,value
2018-10-05T00:00:56.187Z,9.42
2018-10-05T00:01:56.176Z,9.46
2018-10-05T00:02:56.165Z,9.46
2018-10-05T00:03:56.153Z,9.43
2018-10-05T00:04:56.143Z,9.40
2018-10-05T00:05:56.146Z,9.33
2018-10-05T00:06:56.122Z,9.33
2018-10-05T00:07:56.111Z,9.39
2018-10-05T00:08:56.099Z,9.47
2018-10-05T00:09:56.108Z,9.42
2018-10-05T00:10:56.079Z,9.36
2018-10-05T00:11:56.067Z,9.36
2018-10-05T00:12:56.173Z,9.36
2018-10-05T00:13:56.046Z,9.31
2018-10-05T00:14:56.038Z,9.33
2018-10-05T00:15:56.037Z,9.36
2018-10-05T00:16:56.012Z,9.31
2018-10-05T00:17:56.005Z,9.31
2018-10-05T00:18:55.991Z,9.46
2018-10-05T00:19:55.993Z,9.31
2018-10-05T00:20:55.971Z,9.31
2018-10-05T00:21:55.959Z,9.40
2018-10-05T00:22:55.961Z,9.40
2018-10-05T00:23:55.937Z,9.24
2018-10-05T00:24:55.939Z,9.32
2018-10-05T00:25:55.931Z,9.29
2018-10-05T00:26:55.905Z,9.29
2018-10-05T00:27:55.894Z,9.29
2018-10-05T00:28:55.882Z,9.29
2018-10-05T00:29:55.910Z,9.28
2018-10-05T00:30:55.861Z,9.23
2018-10-05T00:31:55.849Z,9.28
2018-10-05T00:32:55.839Z,9.20
2018-10-05T00:33:55.828Z,9.24
2018-10-05T00:34:55.817Z,9.32
2018-10-05T00:35:55.830Z,9.18
2018-10-05T00:36:55.795Z,9.23
2018-10-05T00:37:55.811Z,9.21
2018-10-05T00:38:55.773Z,9.18
2018-10-05T00:39:55.763Z,9.26
2018-10-05T00:40:55.751Z,9.24
2018-10-05T00:41:55.754Z,9.20
2018-10-05T00:42:55.730Z,9.21
2018-10-05T00:43:55.718Z,9.21
2018-10-05T00:44:55.707Z,9.13
2018-10-05T00:45:55.713Z,9.10
2018-10-05T00:46:55.687Z,9.11
2018-10-05T00:47:55.688Z,9.14
2018-10-05T00:48:55.665Z,9.08
2018-10-05T00:49:55.654Z,9.11
2018-10-05T00:50:55.663Z,9.20
2018-10-05T00:51:55.633Z,9.11
2018-10-05T00:52:55.658Z,9.15
2018-10-05T00:53:55.610Z,9.14
2018-10-05T00:54:55.602Z,9.11
2018-10-05T00:55:55.588Z,9.14
2018-10-05T00:56:55.578Z,9.10
2018-10-05T00:57:55.580Z,9.11
2018-10-05T00:58:55.556Z,9.08
2018-10-05T00:59:55.543Z,8.99
2018-10-05T01:00:55.535Z,9.02
2018-10-05T01:01:55.621Z,8.98
2018-10-05T01:02:55.512Z,8.96
2018-10-05T01:03:55.501Z,9.01
2018-10-05T01:04:55.490Z,8.99
2018-10-05T01:05:55.478Z,8.96
2018-10-05T01:06:55.484Z,8.98
2018-10-05T01:07:55.459Z,8.98
2018-10-05T01:08:55.447Z,8.96
2018-10-05T01:09:55.449Z,8.98
2018-10-05T01:10:55.425Z,8.94
2018-10-05T01:11:55.414Z,8.91
2018-10-05T01:12:55.417Z,8.96
2018-10-05T01:13:55.426Z,8.94
2018-10-05T01:14:55.382Z,8.95
2018-10-05T01:15:55.370Z,8.94
2018-10-05T01:16:55.360Z,8.92
2018-10-05T01:17:55.362Z,8.94
2018-10-05T01:18:55.340Z,8.92
2018-10-05T01:19:55.329Z,8.91
2018-10-05T01:20:55.317Z,8.86
2018-10-05T01:21:55.307Z,8.83
2018-10-05T01:22:55.318Z,8.80
2018-10-05T01:23:55.285Z,8.86
2018-10-05T01:24:55.332Z,8.95
2018-10-05T01:25:55.263Z,8.91
2018-10-05T01:26:55.252Z,8.98
2018-10-05T01:27:55.241Z,8.96
2018-10-05T01:28:55.247Z,8.94
2018-10-05T01:29:55.219Z,8.94
2018-10-05T01:30:55.209Z,8.96
2018-10-05T01:31:55.197Z,8.98
2018-10-05T01:32:55.188Z,8.96
2018-10-05T01:33:55.175Z,8.92
2018-10-05T01:34:55.177Z,8.96
2018-10-05T01:35:55.156Z,9.01
2018-10-05T01:36:55.162Z,8.95
2018-10-05T01:37:55.132Z,8.92
2018-10-05T01:38:55.196Z,8.92
2018-10-05T01:39:55.124Z,8.86
2018-10-05T01:40:55.099Z,8.92
2018-10-05T01:41:55.089Z,8.91
2018-10-05T01:42:55.077Z,8.92
2018-10-05T01:43:55.089Z,8.92
2018-10-05T01:44:55.060Z,8.94
2018-10-05T01:45:55.044Z,8.92
2018-10-05T01:46:55.036Z,8.86
2018-10-05T01:47:55.024Z,8.94
2018-10-05T01:48:55.012Z,8.80
2018-10-05T01:49:55.015Z,8.77
2018-10-05T01:50:54.992Z,8.83
2018-10-05T01:51:54.980Z,8.81
2018-10-05T01:52:54.969Z,8.81
2018-10-05T01:53:54.959Z,8.89
2018-10-05T01:54:54.963Z,8.86
2018-10-05T01:55:54.952Z,8.77
2018-10-05T01:56:54.925Z,8.74
2018-10-05T01:57:54.922Z,8.79
2018-10-05T01:58:54.906Z,8.80
2018-10-05T01:59:54.912Z,8.79
2018-10-05T02:00:54.883Z,8.71
2018-10-05T02:01:54.871Z,8.79
2018-10-05T02:02:54.861Z,8.73
2018-10-05T02:03:54.851Z,8.80
2018-10-05T02:04:54.839Z,8.66
2018-10-05T02:05:54.843Z,8.70
2018-10-05T02:06:54.820Z,8.68
2018-10-05T02:07:54.808Z,8.68
2018-10-05T02:08:54.796Z,8.66
2018-10-05T02:09:54.786Z,8.62
2018-10-05T02:10:54.787Z,8.53
2018-10-05T02:11:54.776Z,8.62
2018-10-05T02:12:54.754Z,8.56
2018-10-05T02:13:54.745Z,8.52
2018-10-05T02:14:54.755Z,8.50
2018-10-05T02:15:54.721Z,8.55
2018-10-05T02:16:54.710Z,8.58
2018-10-05T02:17:54.699Z,8.52
2018-10-05T02:18:54.690Z,8.56
2018-10-05T02:19:54.677Z,8.53
2018-10-05T02:20:54.680Z,8.45
2018-10-05T02:21:54.657Z,8.44
2018-10-05T02:22:54.644Z,8.47
2018-10-05T02:23:54.634Z,8.44
2018-10-05T02:24:54.623Z,8.50
2018-10-05T02:25:54.634Z,8.44
2018-10-05T02:26:54.601Z,8.48
2018-10-05T02:27:54.590Z,8.53
2018-10-05T02:28:54.584Z,8.45
2018-10-05T02:29:54.568Z,8.53
2018-10-05T02:30:54.558Z,8.48
2018-10-05T02:31:54.588Z,8.52
2018-10-05T02:32:54.583Z,8.47
2018-10-05T02:33:54.525Z,8.53
2018-10-05T02:34:54.514Z,8.50
2018-10-05T02:35:54.504Z,8.47
2018-10-05T02:36:54.493Z,8.44
2018-10-05T02:37:54.522Z,8.44
2018-10-05T02:38:54.472Z,8.48
2018-10-05T02:39:54.460Z,8.38
2018-10-05T02:40:54.451Z,8.40
2018-10-05T02:41:54.439Z,8.37
2018-10-05T02:42:54.428Z,8.43
2018-10-05T02:43:54.431Z,8.34
2018-10-05T02:44:54.407Z,8.41
2018-10-05T02:45:54.396Z,8.33
2018-10-05T02:46:54.390Z,8.41
2018-10-05T02:47:54.390Z,8.29
2018-10-05T02:48:54.365Z,8.41
2018-10-05T02:49:54.354Z,8.34
2018-10-05T02:50:54.343Z,8.37
2018-10-05T02:51:54.331Z,8.38
2018-10-05T02:52:54.339Z,8.33
2018-10-05T02:53:54.308Z,8.30
2018-10-05T02:54:54.298Z,8.29
2018-10-05T02:55:54.287Z,8.28
2018-10-05T02:56:54.276Z,8.33
2018-10-05T02:57:54.269Z,8.28
2018-10-05T02:58:54.268Z,8.28
2018-10-05T02:59:54.245Z,8.29
2018-10-05T03:00:54.234Z,8.26
2018-10-05T03:01:54.225Z,8.25
2018-10-05T03:02:54.219Z,8.23
2018-10-05T03:03:54.215Z,8.16
2018-10-05T03:04:54.190Z,8.16
2018-10-05T03:05:54.199Z,8.15
2018-10-05T03:06:54.168Z,8.12
2018-10-05T03:07:54.156Z,8.08
2018-10-05T03:08:54.146Z,8.05
2018-10-05T03:09:54.135Z,8.15
2018-10-05T03:10:54.130Z,8.11
2018-10-05T03:11:54.129Z,8.11
2018-10-05T03:12:54.105Z,8.10
2018-10-05T03:13:54.093Z,8.10
2018-10-05T03:14:54.098Z,8.05
2018-10-05T03:15:54.073Z,8.00
2018-10-05T03:16:54.073Z,8.04
2018-10-05T03:17:54.049Z,8.05
2018-10-05T03:18:54.039Z,8.02
2018-10-05T03:19:54.091Z,8.02
2018-10-05T03:20:54.016Z,7.95
2018-10-05T03:21:54.019Z,7.93
2018-10-05T03:22:53.994Z,8.02
2018-10-05T03:23:53.985Z,7.97
2018-10-05T03:24:53.973Z,8.01
2018-10-05T03:25:53.977Z,8.00
2018-10-05T03:26:53.951Z,7.97
2018-10-05T03:27:53.956Z,7.97
2018-10-05T03:28:53.930Z,7.98
2018-10-05T03:29:53.918Z,7.97
2018-10-05T03:30:53.910Z,7.93
2018-10-05T03:31:53.898Z,8.00
2018-10-05T03:32:53.925Z,8.00
2018-10-05T03:33:53.876Z,8.00
2018-10-05T03:34:53.864Z,7.97
2018-10-05T03:35:53.854Z,7.97
2018-10-05T03:36:53.843Z,7.97
2018-10-05T03:37:53.832Z,7.92
2018-10-05T03:38:53.841Z,7.95
2018-10-05T03:39:53.808Z,8.00
2018-10-05T03:40:53.799Z,7.93
2018-10-05T03:41:53.789Z,7.98
2018-10-05T03:42:53.778Z,8.00
2018-10-05T03:43:53.767Z,8.00
2018-10-05T03:44:53.769Z,7.97
2018-10-05T03:45:53.745Z,7.90
2018-10-05T03:46:53.733Z,7.95
2018-10-05T03:47:53.737Z,7.90
2018-10-05T03:48:53.726Z,7.93
2018-10-05T03:49:53.703Z,7.90
2018-10-05T03:50:53.706Z,7.89
2018-10-05T03:51:53.679Z,7.87
2018-10-05T03:52:53.669Z,7.89
2018-10-05T03:53:53.676Z,7.87
2018-10-05T03:54:53.647Z,7.85
2018-10-05T03:55:53.635Z,7.87
2018-10-05T03:56:53.624Z,7.87
2018-10-05T03:57:53.613Z,7.85
2018-10-05T03:58:53.602Z,7.83
2018-10-05T03:59:53.606Z,7.83
2018-10-05T04:00:53.580Z,7.82
2018-10-05T04:01:53.569Z,7.77
2018-10-05T04:02:53.558Z,7.74
2018-10-05T04:03:53.549Z,7.72
2018-10-05T04:04:53.576Z,7.75
2018-10-05T04:05:53.525Z,7.77
2018-10-05T04:06:53.514Z,7.74
2018-10-05T04:07:53.503Z,7.74
2018-10-05T04:08:53.493Z,7.71
2018-10-05T04:09:53.484Z,7.77
2018-10-05T04:10:53.484Z,7.68
2018-10-05T04:11:53.462Z,7.68
2018-10-05T04:12:53.448Z,7.68
2018-10-05T04:13:53.451Z,7.68
2018-10-05T04:14:53.448Z,7.69
2018-10-05T04:15:53.420Z,7.63
2018-10-05T04:16:53.404Z,7.68
2018-10-05T04:17:53.392Z,7.63
2018-10-05T04:18:53.382Z,7.58
2018-10-05T04:19:53.371Z,7.50
2018-10-05T04:20:53.375Z,7.61
2018-10-05T04:21:53.349Z,7.58
2018-10-05T04:22:53.340Z,7.68
2018-10-05T04:23:53.328Z,7.58
2018-10-05T04:24:53.318Z,7.67
2018-10-05T04:25:53.315Z,7.57
2018-10-05T04:26:53.295Z,7.61
2018-10-05T04:27:53.285Z,7.57
2018-10-05T04:28:53.272Z,7.67
2018-10-05T04:29:53.261Z,7.57
2018-10-05T04:30:53.266Z,7.55
2018-10-05T04:31:53.245Z,7.63
2018-10-05T04:32:53.228Z,7.64
2018-10-05T04:33:53.217Z,7.57
2018-10-05T04:34:53.206Z,7.67
2018-10-05T04:35:53.202Z,7.60
2018-10-05T04:36:53.200Z,7.60
2018-10-05T04:37:53.174Z,7.60
2018-10-05T04:38:53.166Z,7.64
2018-10-05T04:39:53.152Z,7.68
2018-10-05T04:40:53.190Z,7.63
2018-10-05T04:41:53.129Z,7.63
2018-10-05T04:42:53.118Z,7.61
2018-10-05T04:43:53.107Z,7.60
2018-10-05T04:44:53.097Z,7.57
2018-10-05T04:45:53.085Z,7.61
2018-10-05T04:46:53.111Z,7.57
2018-10-05T04:47:53.086Z,7.57
2018-10-05T04:48:53.061Z,7.58
2018-10-05T04:49:53.051Z,7.58
2018-10-05T04:50:53.033Z,7.57
2018-10-05T04:51:53.021Z,7.60
2018-10-05T04:52:53.021Z,7.50
2018-10-05T04:53:52.997Z,7.60
2018-10-05T04:54:52.986Z,7.60
2018-10-05T04:55:52.975Z,7.58
2018-10-05T04:56:53.012Z,7.61
2018-10-05T04:57:52.971Z,7.63
2018-10-05T04:58:52.943Z,7.53
2018-10-05T04:59:52.932Z,7.52
2018-10-05T05:00:52.921Z,7.64
2018-10-05T05:01:52.911Z,7.55
2018-10-05T05:02:52.910Z,7.53
2018-10-05T05:03:52.891Z,7.55
2018-10-05T05:04:52.878Z,7.55
2018-10-05T05:05:52.866Z,7.52
2018-10-05T05:06:52.857Z,7.55
2018-10-05T05:07:52.857Z,7.53
2018-10-05T05:08:52.833Z,7.55
2018-10-05T05:09:52.823Z,7.53
2018-10-05T05:10:52.811Z,7.40
2018-10-05T05:11:52.800Z,7.53
2018-10-05T05:12:52.799Z,7.43
2018-10-05T05:13:52.788Z,7.57
2018-10-05T05:14:52.794Z,7.45
2018-10-05T05:15:52.760Z,7.50
2018-10-05T05:16:52.745Z,7.42
2018-10-05T05:17:52.737Z,7.43
2018-10-05T05:18:52.724Z,7.37
2018-10-05T05:19:52.711Z,7.35
2018-10-05T05:20:52.713Z,7.43
2018-10-05T05:21:52.690Z,7.37
2018-10-05T05:22:52.684Z,7.46
2018-10-05T05:23:52.668Z,7.46
2018-10-05T05:24:52.658Z,7.43
2018-10-05T05:25:52.656Z,7.42
2018-10-05T05:26:52.637Z,7.46
2018-10-05T05:27:52.627Z,7.48
2018-10-05T05:28:52.613Z,7.43
2018-10-05T05:29:52.602Z,7.48
2018-10-05T05:30:52.603Z,7.42
2018-10-05T05:31:52.580Z,7.37
2018-10-05T05:32:52.575Z,7.37
2018-10-05T05:33:52.575Z,7.34
2018-10-05T05:34:52.547Z,7.50
2018-10-05T05:35:52.557Z,7.37
2018-10-05T05:36:52.525Z,7.50
2018-10-05T05:37:52.515Z,7.48
2018-10-05T05:38:52.504Z,7.57
2018-10-05T05:39:52.494Z,7.46
2018-10-05T05:40:52.481Z,7.52
2018-10-05T05:41:52.490Z,7.49
2018-10-05T05:42:52.460Z,7.53
2018-10-05T05:43:52.448Z,7.50
2018-10-05T05:44:52.439Z,7.53
2018-10-05T05:45:52.427Z,7.64
2018-10-05T05:46:52.482Z,7.64
2018-10-05T05:47:52.416Z,7.57
2018-10-05T05:48:52.396Z,7.60
2018-10-05T05:49:52.383Z,7.58
2018-10-05T05:50:52.372Z,7.50
2018-10-05T05:51:52.361Z,7.60
2018-10-05T05:52:52.388Z,7.61
2018-10-05T05:53:52.375Z,7.58
2018-10-05T05:54:52.328Z,7.60
2018-10-05T05:55:52.320Z,7.63
2018-10-05T05:56:52.308Z,7.69
2018-10-05T05:57:52.298Z,7.69
2018-10-05T05:58:52.310Z,7.72
2018-10-05T05:59:52.279Z,7.72
2018-10-05T06:00:52.264Z,7.82
2018-10-05T06:01:52.256Z,7.92
2018-10-05T06:02:52.242Z,7.86
2018-10-05T06:03:52.231Z,7.97
2018-10-05T06:04:52.235Z,7.95
2018-10-05T06:05:52.212Z,8.01
2018-10-05T06:06:52.201Z,8.04
2018-10-05T06:07:52.191Z,8.07
2018-10-05T06:08:52.188Z,8.05
2018-10-05T06:09:52.168Z,8.01
2018-10-05T06:10:52.157Z,8.15
2018-10-05T06:11:52.147Z,8.04
2018-10-05T06:12:52.156Z,8.11
2018-10-05T06:13:52.143Z,8.07
2018-10-05T06:14:52.115Z,8.22
2018-10-05T06:15:52.156Z,8.11
2018-10-05T06:16:52.092Z,8.19
2018-10-05T06:17:52.080Z,8.25
2018-10-05T06:18:52.069Z,8.25
2018-10-05T06:19:52.075Z,8.26
2018-10-05T06:20:52.050Z,8.33
2018-10-05T06:21:52.224Z,8.36
2018-10-05T06:22:52.026Z,8.40
2018-10-05T06:23:52.016Z,8.43
2018-10-05T06:24:52.044Z,8.55
2018-10-05T06:25:51.994Z,8.63
2018-10-05T06:26:51.984Z,8.62
2018-10-05T06:27:51.972Z,8.71
2018-10-05T06:28:51.961Z,8.76
2018-10-05T06:29:51.950Z,8.84
2018-10-05T06:30:52.037Z,8.98
2018-10-05T06:31:51.927Z,9.05
2018-10-05T06:32:51.936Z,9.08
2018-10-05T06:33:51.905Z,9.20
2018-10-05T06:34:51.896Z,9.23
2018-10-05T06:35:51.898Z,9.26
2018-10-05T06:36:51.887Z,9.47
2018-10-05T06:37:51.863Z,9.46
2018-10-05T06:38:51.852Z,9.47
2018-10-05T06:39:51.844Z,9.54
2018-10-05T06:40:51.831Z,9.65
2018-10-05T06:41:51.920Z,9.65
2018-10-05T06:42:51.808Z,9.69
2018-10-05T06:43:51.804Z,9.75
2018-10-05T06:44:51.788Z,9.86
2018-10-05T06:45:51.774Z,9.81
2018-10-05T06:46:51.762Z,9.81
2018-10-05T06:47:51.768Z,9.84
2018-10-05T06:48:51.755Z,9.94
2018-10-05T06:49:51.744Z,9.91
2018-10-05T06:50:51.737Z,9.90
2018-10-05T06:51:51.708Z,9.86
2018-10-05T06:52:51.699Z,10.07
2018-10-05T06:53:51.684Z,10.09
2018-10-05T06:54:51.674Z,10.09
2018-10-05T06:55:51.666Z,10.09
2018-10-05T06:56:51.665Z,10.30
2018-10-05T06:57:51.640Z,10.34
2018-10-05T06:58:51.628Z,10.41
2018-10-05T06:59:51.619Z,10.42
2018-10-05T07:00:51.607Z,10.47
2018-10-05T07:01:51.643Z,10.64
2018-10-05T07:02:51.585Z,10.68
2018-10-05T07:03:51.573Z,10.71
2018-10-05T07:04:51.563Z,10.82
2018-10-05T07:05:51.552Z,10.78
2018-10-05T07:06:51.541Z,10.85
2018-10-05T07:07:51.780Z,10.82
2018-10-05T07:08:51.519Z,11.02
2018-10-05T07:09:51.508Z,11.10
2018-10-05T07:10:51.499Z,11.18
2018-10-05T07:11:51.527Z,11.28
2018-10-05T07:12:51.475Z,11.28
2018-10-05T07:13:51.465Z,11.33
2018-10-05T07:14:51.453Z,11.22
2018-10-05T07:15:51.490Z,11.36
2018-10-05T07:16:51.490Z,11.40
2018-10-05T07:17:51.434Z,11.39
2018-10-05T07:18:51.436Z,11.47
2018-10-05T07:19:51.399Z,11.52
2018-10-05T07:20:51.389Z,11.60
2018-10-05T07:21:51.399Z,11.69
2018-10-05T07:22:51.365Z,11.76
2018-10-05T07:23:51.357Z,11.90
2018-10-05T07:24:51.344Z,12.05
2018-10-05T07:25:51.335Z,12.14
2018-10-05T07:26:51.323Z,12.31
2018-10-05T07:27:51.329Z,12.42
2018-10-05T07:28:51.299Z,12.50
2018-10-05T07:29:51.287Z,12.62
2018-10-05T07:30:51.277Z,12.67
2018-10-05T07:31:51.265Z,12.87
2018-10-05T07:32:51.268Z,12.83
2018-10-05T07:33:51.244Z,13.00
2018-10-05T07:34:51.284Z,13.15
2018-10-05T07:35:51.223Z,13.23
2018-10-05T07:36:51.281Z,13.30
2018-10-05T07:37:51.215Z,13.45
2018-10-05T07:38:51.190Z,13.52
2018-10-05T07:39:51.179Z,13.63
2018-10-05T07:40:51.168Z,13.79
2018-10-05T07:41:51.173Z,13.92
2018-10-05T07:42:51.179Z,14.04
2018-10-05T07:43:51.134Z,14.07
2018-10-05T07:44:51.122Z,14.20
2018-10-05T07:45:51.111Z,14.25
2018-10-05T07:46:51.115Z,14.33
2018-10-05T07:47:51.089Z,14.39
2018-10-05T07:48:51.098Z,14.40
2018-10-05T07:49:51.067Z,14.45
2018-10-05T07:50:51.057Z,14.50
2018-10-05T07:51:51.076Z,14.62
2018-10-05T07:52:51.035Z,14.77
2018-10-05T07:53:51.024Z,14.77
2018-10-05T07:54:51.037Z,14.80
2018-10-05T07:55:51.002Z,14.91
2018-10-05T07:56:50.991Z,14.95
2018-10-05T07:57:51.021Z,15.06
2018-10-05T07:58:50.971Z,15.03
2018-10-05T07:59:50.959Z,15.02
2018-10-05T08:00:50.964Z,14.95
2018-10-05T08:01:50.936Z,14.98
2018-10-05T08:02:50.927Z,14.94
2018-10-05T08:03:50.914Z,15.07
2018-10-05T08:04:50.918Z,15.09
2018-10-05T08:05:50.892Z,15.13
2018-10-05T08:06:50.881Z,15.13
2018-10-05T08:07:50.871Z,15.16
2018-10-05T08:08:50.861Z,15.20
2018-10-05T08:09:50.868Z,15.32
2018-10-05T08:10:50.838Z,15.36
2018-10-05T08:11:50.828Z,15.41
2018-10-05T08:12:50.816Z,15.38
2018-10-05T08:13:50.805Z,15.39
2018-10-05T08:14:50.795Z,15.56
2018-10-05T08:15:50.799Z,15.50
2018-10-05T08:16:50.785Z,15.53
2018-10-05T08:17:50.762Z,15.62
2018-10-05T08:18:50.751Z,15.56
2018-10-05T08:19:50.739Z,15.75
2018-10-05T08:20:50.745Z,15.83
2018-10-05T08:21:50.719Z,15.93
2018-10-05T08:22:50.707Z,16.00
2018-10-05T08:23:50.695Z,16.11
2018-10-05T08:24:50.685Z,16.27
2018-10-05T08:25:50.687Z,16.39
2018-10-05T08:26:50.667Z,16.49
2018-10-05T08:27:50.687Z,16.66
2018-10-05T08:28:50.641Z,16.89
2018-10-05T08:29:50.631Z,17.11
2018-10-05T08:30:50.620Z,17.21
2018-10-05T08:31:50.609Z,17.21
2018-10-05T08:32:50.600Z,17.23
2018-10-05T08:33:50.646Z,17.23
2018-10-05T08:34:50.576Z,17.28
2018-10-05T08:35:50.578Z,17.31
2018-10-05T08:36:50.555Z,17.38
2018-10-05T08:37:50.546Z,17.34
2018-10-05T08:38:50.534Z,17.37
2018-10-05T08:39:50.565Z,17.37
2018-10-05T08:40:50.527Z,17.38
2018-10-05T08:41:50.503Z,17.40
2018-10-05T08:42:50.492Z,17.52
2018-10-05T08:43:50.483Z,17.38
2018-10-05T08:44:50.491Z,17.38
2018-10-05T08:45:50.571Z,17.51
2018-10-05T08:46:50.450Z,17.63
2018-10-05T08:47:50.439Z,17.58
2018-10-05T08:48:50.427Z,17.86
2018-10-05T08:49:50.416Z,18.03
2018-10-05T08:50:50.419Z,17.95
2018-10-05T08:51:50.469Z,17.90
2018-10-05T08:52:50.384Z,17.87
2018-10-05T08:53:50.371Z,17.86
2018-10-05T08:54:50.360Z,17.92
2018-10-05T08:55:50.371Z,17.97
2018-10-05T08:56:50.345Z,18.14
2018-10-05T08:57:50.331Z,18.32
2018-10-05T08:58:50.324Z,18.41
2018-10-05T08:59:50.313Z,18.57
2018-10-05T09:00:50.292Z,18.63
2018-10-05T09:01:50.298Z,18.51
2018-10-05T09:02:50.271Z,18.51
2018-10-05T09:03:50.263Z,18.60
2018-10-05T09:04:50.248Z,18.69
2018-10-05T09:05:50.275Z,18.78
2018-10-05T09:06:50.242Z,18.91
2018-10-05T09:07:50.252Z,19.04
2018-10-05T09:08:50.207Z,19.02
2018-10-05T09:09:50.198Z,19.13
2018-10-05T09:10:50.184Z,19.32
2018-10-05T09:11:50.177Z,19.39
2018-10-05T09:12:50.163Z,19.51
2018-10-05T09:13:50.194Z,19.59
2018-10-05T09:14:50.147Z,19.65
2018-10-05T09:15:50.131Z,19.83
2018-10-05T09:16:50.124Z,19.46
2018-10-05T09:17:50.196Z,19.37
2018-10-05T09:18:50.101Z,19.28
2018-10-05T09:19:50.104Z,19.28
2018-10-05T09:20:50.078Z,19.16
2018-10-05T09:21:50.069Z,19.37
2018-10-05T09:22:50.070Z,19.48
2018-10-05T09:23:50.047Z,19.73
2018-10-05T09:24:50.038Z,19.66
2018-10-05T09:25:50.040Z,19.55
2018-10-05T09:26:50.014Z,19.58
2018-10-05T09:27:50.022Z,19.62
2018-10-05T09:28:49.992Z,19.71
2018-10-05T09:29:49.984Z,19.91
2018-10-05T09:30:50.080Z,20.02
2018-10-05T09:31:49.961Z,19.83
2018-10-05T09:32:49.966Z,19.76
2018-10-05T09:33:49.957Z,19.55
2018-10-05T09:34:49.943Z,19.73
2018-10-05T09:35:49.922Z,19.98
2018-10-05T09:36:49.908Z,20.13
2018-10-05T09:37:49.942Z,20.16
2018-10-05T09:38:49.927Z,20.06
2018-10-05T09:39:49.875Z,20.03
2018-10-05T09:40:49.868Z,20.08
2018-10-05T09:41:49.859Z,19.92
2018-10-05T09:42:49.841Z,19.92
2018-10-05T09:43:49.833Z,19.92
2018-10-05T09:44:49.854Z,20.03
2018-10-05T09:45:49.816Z,20.28
2018-10-05T09:46:49.802Z,20.59
2018-10-05T09:47:49.791Z,20.74
2018-10-05T09:48:49.777Z,20.99
2018-10-05T09:49:49.770Z,21.31
2018-10-05T09:50:49.770Z,21.47
2018-10-05T09:51:49.774Z,21.67
2018-10-05T09:52:49.739Z,21.75
2018-10-05T09:53:49.731Z,21.92
2018-10-05T09:54:49.748Z,22.05
2018-10-05T09:55:49.707Z,22.21
2018-10-05T09:56:49.694Z,22.00
2018-10-05T09:57:49.684Z,21.65
2018-10-05T09:58:49.673Z,21.58
2018-10-05T09:59:49.782Z,21.42
2018-10-05T10:00:49.667Z,21.35
2018-10-05T10:01:49.643Z,21.32
2018-10-05T10:02:49.643Z,21.03
2018-10-05T10:03:49.619Z,20.79
2018-10-05T10:04:49.610Z,20.51
2018-10-05T10:05:49.614Z,20.36
2018-10-05T10:06:49.586Z,20.48
2018-10-05T10:07:49.633Z,20.74
2018-10-05T10:08:49.568Z,20.94
2018-10-05T10:09:49.556Z,21.27
2018-10-05T10:10:49.593Z,21.42
2018-10-05T10:11:49.535Z,21.52
2018-10-05T10:12:49.522Z,21.62
2018-10-05T10:13:49.522Z,21.58
2018-10-05T10:14:49.504Z,21.58
2018-10-05T10:15:49.495Z,21.64
2018-10-05T10:16:49.499Z,21.67
2018-10-05T10:17:49.469Z,21.69
2018-10-05T10:18:49.459Z,21.88
2018-10-05T10:19:49.451Z,22.00
2018-10-05T10:20:49.443Z,22.10
2018-10-05T10:21:49.461Z,22.17
2018-10-05T10:22:49.545Z,22.31
2018-10-05T10:23:49.407Z,22.51
2018-10-05T10:24:49.397Z,22.61
2018-10-05T10:25:49.384Z,22.65
2018-10-05T10:26:49.374Z,22.51
2018-10-05T10:27:49.369Z,22.42
2018-10-05T10:28:49.599Z,22.35
2018-10-05T10:29:49.360Z,22.17
2018-10-05T10:30:49.332Z,22.22
2018-10-05T10:31:49.321Z,22.24
2018-10-05T10:32:49.312Z,22.37
2018-10-05T10:33:49.371Z,22.39
2018-10-05T10:34:49.299Z,22.27
2018-10-05T10:35:49.292Z,22.10
2018-10-05T10:36:49.336Z,22.15
2018-10-05T10:37:49.258Z,22.07
2018-10-05T10:38:49.262Z,21.91
2018-10-05T10:39:49.337Z,21.56
2018-10-05T10:40:49.226Z,21.49
2018-10-05T10:41:49.216Z,21.71
2018-10-05T10:42:49.205Z,21.83
2018-10-05T10:43:49.218Z,21.82
2018-10-05T10:44:49.186Z,21.77
2018-10-05T10:45:49.176Z,21.92
2018-10-05T10:46:49.164Z,22.09
2018-10-05T10:47:49.158Z,22.24
2018-10-05T10:48:49.142Z,22.30
2018-10-05T10:49:49.163Z,22.30
2018-10-05T10:50:49.125Z,22.45
2018-10-05T10:51:49.111Z,22.60
2018-10-05T10:52:49.102Z,22.61
2018-10-05T10:53:49.094Z,22.75
2018-10-05T10:54:49.079Z,22.72
2018-10-05T10:55:49.089Z,22.92
2018-10-05T10:56:49.058Z,22.97
2018-10-05T10:57:49.047Z,22.73
2018-10-05T10:58:49.039Z,22.61
2018-10-05T10:59:49.026Z,22.49
2018-10-05T11:00:49.137Z,22.62
2018-10-05T11:01:49.021Z,22.70
2018-10-05T11:02:49.036Z,22.70
2018-10-05T11:03:48.986Z,22.54
2018-10-05T11:04:49.000Z,22.36
2018-10-05T11:05:48.965Z,22.35
2018-10-05T11:06:48.952Z,22.36
2018-10-05T11:07:48.944Z,22.61
2018-10-05T11:08:48.945Z,22.75
2018-10-05T11:09:48.924Z,22.77
2018-10-05T11:10:48.922Z,22.88
2018-10-05T11:11:48.902Z,23.02
2018-10-05T11:12:48.891Z,23.19
2018-10-05T11:13:48.897Z,23.25
2018-10-05T11:14:48.882Z,23.12
2018-10-05T11:15:48.872Z,22.92
2018-10-05T11:16:48.885Z,22.77
2018-10-05T11:17:48.838Z,23.04
2018-10-05T11:18:48.867Z,23.07
2018-10-05T11:19:48.816Z,23.23
2018-10-05T11:20:48.805Z,23.42
2018-10-05T11:21:48.797Z,23.47
2018-10-05T11:22:48.784Z,23.32
2018-10-05T11:23:48.773Z,23.23
2018-10-05T11:24:48.777Z,23.19
2018-10-05T11:25:48.755Z,23.01
2018-10-05T11:26:48.741Z,22.77
2018-10-05T11:27:48.745Z,22.52
2018-10-05T11:28:48.917Z,22.35
2018-10-05T11:29:48.855Z,22.21
2018-10-05T11:30:48.700Z,22.35
2018-10-05T11:31:48.689Z,22.54
2018-10-05T11:32:48.678Z,22.73
2018-10-05T11:33:48.727Z,23.04
2018-10-05T11:34:48.674Z,23.15
2018-10-05T11:35:48.646Z,23.35
2018-10-05T11:36:48.636Z,23.48
2018-10-05T11:37:48.628Z,23.58
2018-10-05T11:38:48.618Z,23.75
2018-10-05T11:39:48.643Z,23.85
2018-10-05T11:40:48.681Z,23.85
2018-10-05T11:41:48.586Z,23.63
2018-10-05T11:42:48.575Z,23.43
2018-10-05T11:43:48.564Z,23.31
2018-10-05T11:44:48.553Z,23.28
2018-10-05T11:45:48.556Z,23.28
2018-10-05T11:46:48.530Z,23.27
2018-10-05T11:47:48.536Z,23.09
2018-10-05T11:48:48.510Z,23.05
2018-10-05T11:49:48.501Z,23.05
2018-10-05T11:50:48.504Z,23.05
2018-10-05T11:51:48.494Z,23.23
2018-10-05T11:52:48.470Z,23.07
2018-10-05T11:53:48.457Z,22.88
2018-10-05T11:54:48.447Z,22.75
2018-10-05T11:55:48.436Z,22.77
2018-10-05T11:56:48.439Z,22.75
2018-10-05T11:57:48.415Z,22.79
2018-10-05T11:58:48.408Z,22.70
2018-10-05T11:59:48.534Z,22.86
2018-10-05T12:00:48.384Z,23.01
2018-10-05T12:01:48.398Z,23.05
2018-10-05T12:02:48.362Z,23.23
2018-10-05T12:03:48.352Z,23.33
2018-10-05T12:04:48.345Z,23.53
2018-10-05T12:05:48.333Z,23.60
2018-10-05T12:06:48.333Z,23.69
2018-10-05T12:07:48.325Z,23.79
2018-10-05T12:08:48.302Z,23.85
2018-10-05T12:09:48.290Z,23.75
2018-10-05T12:10:48.278Z,23.70
2018-10-05T12:11:48.271Z,23.43
2018-10-05T12:12:48.297Z,23.23
2018-10-05T12:13:48.302Z,23.23
2018-10-05T12:14:48.238Z,23.04
2018-10-05T12:15:48.226Z,23.02
2018-10-05T12:16:48.217Z,23.16
2018-10-05T12:17:48.207Z,23.32
2018-10-05T12:18:48.211Z,23.35
2018-10-05T12:19:48.226Z,23.04
2018-10-05T12:20:48.173Z,23.09
2018-10-05T12:21:48.163Z,23.00
2018-10-05T12:22:48.184Z,23.07
2018-10-05T12:23:48.141Z,23.04
2018-10-05T12:24:48.131Z,23.00
2018-10-05T12:25:48.123Z,23.12
2018-10-05T12:26:48.183Z,23.20
2018-10-05T12:27:48.098Z,23.31
2018-10-05T12:28:48.130Z,23.46
2018-10-05T12:29:48.080Z,23.36
2018-10-05T12:30:48.068Z,23.28
2018-10-05T12:31:48.059Z,23.36
2018-10-05T12:32:48.048Z,23.53
2018-10-05T12:33:48.035Z,23.63
2018-10-05T12:34:48.039Z,23.43
2018-10-05T12:35:48.021Z,23.63
2018-10-05T12:36:48.005Z,23.61
2018-10-05T12:37:47.992Z,23.40
2018-10-05T12:38:47.998Z,23.36
2018-10-05T12:39:47.972Z,23.32
2018-10-05T12:40:47.975Z,23.17
2018-10-05T12:41:47.954Z,22.88
2018-10-05T12:42:47.943Z,22.77
2018-10-05T12:43:47.933Z,22.61
2018-10-05T12:44:47.922Z,22.75
2018-10-05T12:45:47.930Z,22.75
2018-10-05T12:46:47.898Z,22.97
2018-10-05T12:47:47.889Z,23.20
2018-10-05T12:48:47.880Z,23.53
2018-10-05T12:49:47.866Z,23.73
2018-10-05T12:50:47.859Z,23.88
2018-10-05T12:51:47.888Z,23.98
2018-10-05T12:52:47.835Z,24.12
2018-10-05T12:53:47.830Z,24.00
2018-10-05T12:54:47.816Z,24.02
2018-10-05T12:55:47.806Z,24.00
2018-10-05T12:56:47.793Z,24.13
2018-10-05T12:57:47.799Z,24.15
2018-10-05T12:58:47.772Z,23.90
2018-10-05T12:59:47.764Z,23.84
2018-10-05T13:00:47.751Z,23.83
2018-10-05T13:01:47.740Z,23.83
2018-10-05T13:02:47.744Z,23.90
2018-10-05T13:03:47.722Z,24.05
2018-10-05T13:04:47.709Z,24.20
2018-10-05T13:05:47.702Z,24.24